Time;durP1;ratioP1;P1;durP2;ratioP2;P2;SDS_P1;SDS_P2;PMS_P1;PMS_P2;Temp;Humidity;BMP_temperature;BMP_pressure;BME280_temperature;BME280_humidity;BME280_pressure;Samples;Min_cycle;Max_cycle;Signal;HPM_P1;HPM_P2
2022/03/17 00:00:13;;;;;;;27.15;20.15;;;12.70;87.00;;;11.13;75.04;100964.88;4971556;28;20146;-91
2022/03/17 00:02:41;;;;;;;26.95;19.38;;;12.70;87.00;;;11.23;74.96;100975.59;4990366;28;20034;-91
2022/03/17 00:05:16;;;;;;;33.00;21.00;;;12.70;86.80;;;11.20;75.11;100970.50;4973302;28;20069;-92
2022/03/17 00:07:44;;;;;;;29.40;20.63;;;12.70;87.20;;;11.21;74.97;100983.06;4955361;28;20509;-91
2022/03/17 00:10:16;;;;;;;30.85;20.48;;;12.70;86.80;;;11.26;74.92;100988.00;4962084;28;20424;-92
2022/03/17 00:12:43;;;;;;;;;;;12.90;86.80;;;11.22;74.91;100973.88;4990111;28;20046;-92
2022/03/17 00:15:11;;;;;;;28.08;19.25;;;12.70;86.70;;;11.27;74.78;100987.84;5011853;23;19925;-76
2022/03/17 00:17:40;;;;;;;33.72;21.30;;;12.80;86.70;;;11.27;74.99;100976.94;5021084;28;20041;-77
2022/03/17 00:20:10;;;;;;;32.83;20.95;;;12.80;86.70;;;11.28;74.48;100986.78;5029508;28;20049;-77
2022/03/17 00:22:38;;;;;;;27.00;18.95;;;12.80;86.50;;;11.27;74.39;100985.13;5010643;28;20049;-76
2022/03/17 00:25:07;;;;;;;28.73;20.77;;;12.80;86.40;;;11.28;74.65;100980.50;5010215;28;20547;-76
2022/03/17 00:27:36;;;;;;;30.45;20.90;;;12.80;86.60;;;11.29;74.58;100990.34;4988865;28;20042;-76
2022/03/17 00:30:06;;;;;;;27.83;19.23;;;12.80;86.40;;;11.28;74.84;100985.94;4997636;28;20046;-76
2022/03/17 00:32:34;;;;;;;32.90;20.42;;;12.80;86.80;;;11.27;74.96;100982.38;4992635;28;20153;-76
2022/03/17 00:37:46;;;;;;;28.05;20.30;;;12.80;86.60;;;11.29;74.70;100991.22;5002456;28;20041;-76
2022/03/17 00:40:14;;;;;;;31.52;20.90;;;12.80;86.60;;;11.28;74.97;100991.41;5010391;28;20049;-76
2022/03/17 00:42:43;;;;;;;26.70;19.80;;;12.80;86.60;;;11.27;74.71;100984.25;5009991;28;20072;-76
2022/03/17 00:45:11;;;;;;;28.85;19.58;;;12.80;86.50;;;11.24;74.94;100993.63;5009705;28;20041;-77
2022/03/17 00:47:38;;;;;;;29.17;20.60;;;12.80;86.90;;;11.24;74.88;100985.47;5010503;28;20060;-76
2022/03/17 00:50:09;;;;;;;27.98;20.73;;;12.80;86.80;;;11.26;74.88;100997.03;5009397;28;20073;-76
2022/03/17 00:52:37;;;;;;;28.85;20.38;;;12.80;86.40;;;11.26;74.88;100990.72;5008987;28;20042;-77
2022/03/17 00:55:06;;;;;;;29.00;21.55;;;12.80;86.70;;;11.21;74.91;100993.97;5003519;28;20042;-76
2022/03/17 00:57:36;;;;;;;30.60;21.35;;;12.80;86.70;;;11.21;74.86;100998.56;5007888;28;20058;-77
2022/03/17 01:00:06;;;;;;;30.52;21.17;;;12.80;86.70;;;11.22;74.73;100992.97;5001363;28;20045;-76
2022/03/17 01:02:34;;;;;;;34.63;21.90;;;12.80;86.80;;;11.23;74.75;100991.94;5010274;28;20041;-76
2022/03/17 01:05:02;;;;;;;28.35;20.52;;;12.70;86.40;;;11.22;74.85;101001.13;5009319;28;20038;-77
2022/03/17 01:07:29;;;;;;;29.23;20.60;;;12.80;86.70;;;11.19;75.26;100987.00;5009736;28;20050;-76
2022/03/17 01:09:56;;;;;;;30.48;21.88;;;12.70;87.20;;;11.19;74.90;100987.00;5008939;28;20048;-76
2022/03/17 01:12:23;;;;;;;32.53;21.08;;;12.70;86.60;;;11.19;74.94;100985.13;5007990;28;20049;-76
2022/03/17 01:14:51;;;;;;;29.30;21.50;;;12.70;86.90;;;11.18;75.20;100982.59;5002065;28;20050;-77
2022/03/17 01:17:19;;;;;;;29.90;21.38;;;12.70;86.90;;;11.18;75.30;100983.44;5009619;28;20046;-77
2022/03/17 01:19:47;;;;;;;28.20;20.10;;;12.70;86.90;;;11.16;75.30;100980.06;5009640;28;20082;-76
2022/03/17 01:22:14;;;;;;;30.50;21.30;;;12.70;87.00;;;11.17;75.20;100976.28;5009434;28;20417;-77
2022/03/17 01:24:41;;;;;;;30.33;20.63;;;12.70;86.70;;;11.19;74.82;100985.13;5009067;28;20038;-76
2022/03/17 01:27:08;;;;;;;32.05;21.67;;;12.70;86.90;;;11.19;75.22;100965.22;5009688;28;20042;-76
2022/03/17 01:29:38;;;;;;;31.02;21.95;;;12.70;86.90;;;11.20;75.20;100973.22;5007931;28;20121;-77
2022/03/17 01:32:07;;;;;;;31.25;21.98;;;12.70;86.80;;;11.18;75.26;100967.09;5000950;28;20049;-77
2022/03/17 01:34:35;;;;;;;32.17;22.48;;;12.70;86.90;;;11.18;75.16;100967.09;5009029;28;20038;-76
2022/03/17 01:37:03;;;;;;;31.33;22.17;;;12.70;86.80;;;11.20;75.24;100959.59;4995986;28;20046;-76
2022/03/17 01:39:30;;;;;;;30.35;21.88;;;12.70;86.90;;;11.21;74.99;100971.34;4992077;28;20056;-76
2022/03/17 01:41:58;;;;;;;31.52;22.08;;;12.70;86.90;;;11.23;74.99;100966.56;5009235;28;20046;-76
2022/03/17 01:44:26;;;;;;;30.05;22.08;;;12.70;86.90;;;11.20;75.41;100967.78;5009042;28;20129;-76
2022/03/17 01:49:39;;;;;;;31.27;22.98;;;12.70;87.20;;;11.19;75.13;100967.94;5004831;28;20038;-76
2022/03/17 01:52:08;;;;;;;31.25;22.25;;;12.70;87.30;;;11.21;75.16;100950.38;5013288;28;20045;-76
2022/03/17 01:54:36;;;;;;;33.75;21.83;;;12.70;87.20;;;11.16;75.15;100955.53;5013019;28;20029;-76
2022/03/17 01:57:05;;;;;;;32.38;23.23;;;12.70;87.10;;;11.18;75.15;100956.19;5013249;28;20045;-77
2022/03/17 01:59:33;;;;;;;31.60;22.35;;;12.70;87.00;;;11.13;75.66;100954.00;4995329;28;20413;-77
2022/03/17 02:02:02;;;;;;;29.92;22.63;;;12.70;87.30;;;11.18;75.49;100949.91;5013037;28;20103;-77
2022/03/17 02:04:29;;;;;;;32.55;22.52;;;12.70;87.20;;;11.17;75.44;100946.31;5010559;28;20053;-77
2022/03/17 02:06:58;;;;;;;31.30;22.33;;;12.70;87.20;;;11.17;75.32;100940.03;5010030;28;20042;-76
2022/03/17 02:09:26;;;;;;;32.03;22.48;;;12.70;87.30;;;11.17;75.49;100946.31;5009858;28;20117;-76
2022/03/17 02:14:49;;;;;;;31.58;22.63;;;12.70;87.10;;;11.17;75.44;100959.94;5012717;28;20141;-77
2022/03/17 02:17:17;;;;;;;31.55;23.10;;;12.70;87.30;;;11.18;75.48;100949.91;5012627;28;20069;-77
2022/03/17 02:19:44;;;;;;;30.95;22.30;;;12.70;87.10;;;11.16;75.50;100950.09;5012773;28;20489;-77
2022/03/17 02:22:16;;;;;;;31.65;22.42;;;12.70;87.20;;;11.17;75.53;100949.03;5011860;28;20052;-77
2022/03/17 02:27:34;;;;;;;30.77;22.67;;;12.60;87.30;;;11.15;75.38;100956.53;5012658;28;20076;-77
2022/03/17 02:30:03;;;;;;;36.70;23.80;;;12.60;87.40;;;11.12;75.89;100967.81;5012241;28;20046;-77
2022/03/17 02:32:31;;;;;;;34.72;22.90;;;12.60;87.30;;;11.12;75.75;100965.09;5012504;28;20464;-77
2022/03/17 02:34:58;;;;;;;29.85;21.75;;;12.60;87.50;;;11.09;75.61;100963.56;5011863;28;20137;-76
2022/03/17 02:37:25;;;;;;;30.33;21.77;;;12.60;87.50;;;11.08;76.03;100955.56;5012221;28;20120;-76
2022/03/17 02:39:54;;;;;;;31.10;22.15;;;12.60;87.80;;;11.11;75.99;100960.66;5012303;28;20487;-76
2022/03/17 02:42:21;;;;;;;34.78;23.23;;;12.60;87.80;;;11.13;76.04;100959.44;5009909;28;20500;-77
2022/03/17 02:44:49;;;;;;;33.55;22.70;;;12.60;87.80;;;11.12;75.86;100954.19;5012106;28;20054;-77
2022/03/17 02:47:16;;;;;;;33.80;23.38;;;12.60;88.00;;;11.11;76.06;100945.16;5012279;28;20500;-77
2022/03/17 02:49:43;;;;;;;31.15;22.20;;;12.60;88.00;;;11.09;76.12;100947.22;5011744;28;20121;-77
2022/03/17 02:52:10;;;;;;;30.65;22.55;;;12.60;88.00;;;11.09;76.03;100951.81;5012085;28;20133;-76
2022/03/17 02:54:37;;;;;;;29.98;22.83;;;12.60;87.70;;;11.10;75.90;100942.59;5010472;28;20038;-76
2022/03/17 02:57:07;;;;;;;31.58;23.38;;;12.60;87.70;;;11.10;76.21;100945.31;5012083;28;20046;-77
2022/03/17 02:59:35;;;;;;;35.70;23.20;;;12.60;87.90;;;11.09;76.10;100951.81;5010719;28;20144;-76
2022/03/17 03:02:04;;;;;;;32.22;22.58;;;12.60;88.00;;;11.07;76.35;100951.16;5003294;28;20126;-76
2022/03/17 03:04:32;;;;;;;33.42;22.15;;;12.60;88.00;;;11.07;76.20;100956.59;5011110;28;20042;-77
2022/03/17 03:07:02;;;;;;;31.48;22.23;;;12.60;88.10;;;11.07;76.53;100952.00;5012018;28;20868;-76
2022/03/17 03:09:29;;;;;;;35.67;22.30;;;12.60;88.20;;;11.05;76.78;100966.81;5011872;28;20053;-76
2022/03/17 03:11:57;;;;;;;33.90;22.67;;;12.60;88.40;;;11.03;76.70;100969.72;5011467;28;20416;-76
2022/03/17 03:14:26;;;;;;;32.53;22.08;;;12.60;88.30;;;11.02;77.00;100967.16;5011436;28;20048;-76
2022/03/17 03:16:53;;;;;;;31.83;22.70;;;12.60;88.60;;;11.04;76.80;100962.38;5010258;28;20066;-76
2022/03/17 03:19:21;;;;;;;34.90;24.02;;;12.60;88.60;;;11.06;77.19;100973.94;5002939;28;20077;-76
2022/03/17 03:21:49;;;;;;;32.80;22.15;;;12.60;88.60;;;11.09;76.78;100969.00;4998322;28;20132;-76
2022/03/17 03:24:17;;;;;;;31.65;23.63;;;12.60;88.70;;;11.09;76.78;100977.16;5011703;28;20081;-76
2022/03/17 03:26:45;;;;;;;31.92;23.50;;;12.60;88.70;;;11.08;76.96;100967.31;4991024;28;20551;-76
2022/03/17 03:29:20;;;;;;;32.60;23.80;;;12.60;89.00;;;11.07;76.78;100971.06;5008660;28;20046;-76
2022/03/17 03:31:49;;;;;;;33.63;23.17;;;12.60;89.00;;;11.08;76.82;100972.78;5011100;28;20034;-77
2022/03/17 03:34:16;;;;;;;33.25;23.25;;;12.50;88.80;;;11.10;77.11;100973.44;5010249;28;20048;-76
2022/03/17 03:39:28;;;;;;;33.45;23.42;;;12.60;88.90;;;11.07;77.24;100970.22;5002844;28;20041;-76
2022/03/17 03:41:55;;;;;;;34.38;22.52;;;12.60;88.70;;;11.04;77.14;100962.38;4999037;28;20121;-76
2022/03/17 03:44:22;;;;;;;33.45;23.27;;;12.60;88.90;;;11.02;77.09;100972.59;4991715;28;20053;-76
2022/03/17 03:46:51;;;;;;;34.65;22.52;;;12.60;88.90;;;11.03;77.48;100985.22;4991884;28;20042;-76
2022/03/17 03:49:19;;;;;;;33.30;22.08;;;12.60;89.00;;;10.99;77.63;100986.59;5008075;28;20045;-76
2022/03/17 03:51:46;;;;;;;33.03;23.70;;;12.60;89.20;;;11.01;77.90;101003.59;5009473;28;20069;-76
2022/03/17 03:54:19;;;;;;;30.90;21.80;;;12.50;89.50;;;11.01;78.01;101000.88;5002157;28;20125;-76
2022/03/17 03:56:49;;;;;;;36.50;22.88;;;12.50;89.70;;;11.01;78.12;101004.44;5009049;28;20088;-76
2022/03/17 03:59:20;;;;;;;35.47;22.55;;;12.50;89.70;;;11.01;78.42;101009.06;5010905;28;20444;-76
2022/03/17 04:01:48;;;;;;;30.90;22.23;;;12.50;90.00;;;11.01;78.72;101020.78;5010889;28;20120;-76
2022/03/17 04:04:18;;;;;;;34.78;23.30;;;12.50;90.20;;;11.02;78.34;101016.19;5010623;28;20050;-76
2022/03/17 04:06:47;;;;;;;31.83;22.60;;;12.50;90.10;;;11.05;78.40;101030.31;4986460;28;20486;-76
2022/03/17 04:09:15;;;;;;;34.47;22.92;;;12.50;90.10;;;11.05;78.58;101021.28;4985137;28;20168;-76
2022/03/17 04:11:42;;;;;;;32.95;23.40;;;12.50;90.20;;;11.06;78.71;101031.16;4991006;28;20046;-76
2022/03/17 04:14:09;;;;;;;35.05;22.40;;;12.50;90.30;;;11.06;79.05;101029.28;5000837;28;20077;-76
2022/03/17 04:16:37;;;;;;;36.95;24.30;;;12.50;90.50;;;11.09;78.97;101036.25;4991195;28;20467;-76
2022/03/17 04:19:06;;;;;;;34.00;23.85;;;12.50;90.50;;;11.04;79.42;101036.78;4991117;28;20048;-77
2022/03/17 04:21:34;;;;;;;35.83;23.25;;;12.50;90.60;;;11.08;79.32;101045.44;5001122;28;20119;-76
2022/03/17 04:24:02;;;;;;;33.05;23.27;;;12.60;90.50;;;11.06;79.61;101047.50;5010177;28;20140;-76
2022/03/17 04:26:29;;;;;;;34.25;23.25;;;12.60;90.60;;;11.07;79.58;101051.94;5010487;28;20041;-76
2022/03/17 04:28:57;;;;;;;33.47;22.38;;;12.60;91.10;;;11.06;79.82;101061.09;5004914;28;20050;-76
2022/03/17 04:31:24;;;;;;;36.33;24.02;;;12.50;91.70;;;11.03;81.07;101062.31;4999457;28;20053;-76
2022/03/17 04:33:52;;;;;;;36.50;25.10;;;12.50;92.10;;;11.03;81.05;101066.94;5010392;28;20084;-76
2022/03/17 04:36:21;;;;;;;33.53;24.00;;;12.40;92.00;;;11.03;80.91;101069.66;5009847;28;20524;-76
2022/03/17 04:38:50;;;;;;;34.75;23.98;;;12.50;92.10;;;11.02;81.69;101070.66;5010077;28;20048;-76
2022/03/17 04:41:18;;;;;;;34.08;25.27;;;12.50;92.70;;;11.05;80.75;101079.34;5009975;28;20401;-76
2022/03/17 04:43:46;;;;;;;37.63;24.73;;;12.50;92.40;;;11.05;81.02;101081.22;5009888;28;20054;-76
2022/03/17 04:46:14;;;;;;;35.85;25.33;;;12.50;92.40;;;11.05;81.51;101081.22;5009849;28;20131;-76
2022/03/17 04:48:41;;;;;;;36.08;25.17;;;12.50;92.60;;;11.04;81.87;101093.13;5005587;28;20049;-76
2022/03/17 04:51:09;;;;;;;35.83;26.13;;;12.50;93.10;;;11.03;81.71;101092.28;5004801;28;20116;-77
2022/03/17 04:53:36;;;;;;;37.83;27.35;;;12.50;93.20;;;11.06;82.15;101107.41;5009562;28;20049;-76
2022/03/17 04:56:08;;;;;;;39.45;27.17;;;12.50;93.70;;;11.01;82.52;101107.94;5010242;28;20046;-76
2022/03/17 04:58:38;;;;;;;40.38;28.42;;;12.40;94.20;;;11.00;83.31;101110.84;5009796;28;20049;-76
2022/03/17 05:01:07;;;;;;;40.20;28.42;;;12.40;94.70;;;10.95;83.89;101114.94;5009266;28;20042;-76
2022/03/17 05:03:35;;;;;;;42.13;29.77;;;12.40;95.10;;;10.93;84.43;101110.69;5009598;28;20041;-76
2022/03/17 05:06:04;;;;;;;42.10;29.92;;;12.40;95.80;;;10.87;86.26;101123.13;5008197;28;20038;-76
2022/03/17 05:08:35;;;;;;;42.30;29.52;;;12.30;96.20;;;10.87;87.21;101120.41;5001149;28;20144;-77
2022/03/17 05:11:03;;;;;;;;;;;12.30;97.30;;;10.85;87.63;101122.44;5009572;28;20057;-78
2022/03/17 05:13:32;;;;;;;40.90;29.27;;;12.20;97.70;;;10.75;90.65;101135.38;5009697;28;19929;-78
2022/03/17 05:15:59;;;;;;;43.88;30.23;;;12.20;98.30;;;10.70;91.09;101149.50;5009176;28;20124;-78
2022/03/17 05:18:27;;;;;;;44.03;30.55;;;12.20;99.00;;;10.64;90.37;101141.16;5009440;28;20057;-78
2022/03/17 05:20:54;;;;;;;44.35;31.05;;;12.10;99.80;;;10.66;91.23;101139.09;5008465;28;20034;-78
2022/03/17 05:23:23;;;;;;;44.95;31.35;;;12.10;99.80;;;10.64;91.12;101154.75;5008159;28;20046;-78
2022/03/17 05:25:52;;;;;;;48.00;32.25;;;12.10;99.90;;;10.63;92.42;101153.06;5000864;28;20056;-77
2022/03/17 05:28:20;;;;;;;49.25;32.63;;;12.00;99.90;;;10.49;96.76;101168.19;5007551;28;20046;-78
2022/03/17 05:30:49;;;;;;;46.08;32.22;;;12.00;99.90;;;10.42;97.26;101168.00;5007784;28;20050;-78
2022/03/17 05:33:16;;;;;;;46.65;32.45;;;12.00;99.90;;;10.37;97.38;101181.25;5009105;28;20117;-81
2022/03/17 05:35:45;;;;;;;48.20;33.20;;;11.90;99.90;;;10.35;98.79;101183.28;5009366;28;20131;-83
2022/03/17 05:38:13;;;;;;;47.92;33.22;;;11.90;99.90;;;10.36;97.65;101188.56;5009251;28;20574;-82
2022/03/17 05:40:40;;;;;;;51.88;34.28;;;11.80;99.90;;;10.34;98.30;101196.06;5008114;28;20048;-82
2022/03/17 05:43:10;;;;;;;52.08;34.25;;;11.80;99.90;;;10.29;99.55;101201.09;5002189;28;20125;-81
2022/03/17 05:45:43;;;;;;;51.30;36.05;;;11.80;99.90;;;10.25;99.94;101213.34;5008202;28;20057;-82
2022/03/17 05:48:11;;;;;;;52.78;34.72;;;11.70;99.90;;;10.27;100.00;101216.75;5006062;28;20038;-82
2022/03/17 05:50:42;;;;;;;51.90;34.95;;;11.70;99.90;;;10.22;100.00;101215.53;4987841;28;20530;-81
2022/03/17 05:53:11;;;;;;;54.28;36.22;;;11.80;99.90;;;10.24;100.00;101218.94;5006355;28;20121;-82
2022/03/17 05:55:39;;;;;;;53.55;36.80;;;11.70;99.90;;;10.17;100.00;101225.03;4998858;28;20046;-82
2022/03/17 05:58:07;;;;;;;59.08;38.03;;;11.70;99.90;;;10.23;100.00;101231.69;5007598;28;20034;-82
2022/03/17 06:00:36;;;;;;;53.80;35.88;;;11.60;99.90;;;10.27;100.00;101240.38;5000543;28;20073;-82
2022/03/17 06:03:04;;;;;;;56.55;37.60;;;11.60;99.90;;;10.27;100.00;101254.00;5008636;28;20038;-81
2022/03/17 06:05:33;;;;;;;54.42;37.83;;;11.60;99.90;;;10.20;100.00;101266.53;5008844;28;20707;-81
2022/03/17 06:08:01;;;;;;;59.90;38.53;;;11.60;99.90;;;10.16;100.00;101268.72;5009059;28;20556;-83
2022/03/17 06:10:32;;;;;;;59.85;38.10;;;11.50;99.90;;;10.15;100.00;101273.31;5008540;28;20034;-82
2022/03/17 06:13:01;;;;;;;56.95;36.08;;;11.50;99.90;;;10.06;100.00;101274.28;5007269;28;20045;-83
2022/03/17 06:15:29;;;;;;;55.42;37.03;;;11.50;99.90;;;10.03;100.00;101279.19;4997146;28;20095;-82
2022/03/17 06:17:58;;;;;;;58.80;38.13;;;11.50;99.90;;;9.88;100.00;101285.25;5000928;28;20121;-82
2022/03/17 06:20:27;;;;;;;58.95;38.22;;;11.50;99.90;;;9.95;100.00;101290.88;4990604;28;20070;-82
2022/03/17 06:22:58;;;;;;;59.42;38.97;;;11.50;99.90;;;9.93;100.00;101298.34;5009224;28;20050;-83
2022/03/17 06:25:28;;;;;;;54.97;36.40;;;11.40;99.90;;;10.00;100.00;101299.41;5008627;28;20036;-83
2022/03/17 06:27:55;;;;;;;55.22;37.63;;;11.40;99.90;;;9.82;100.00;101312.22;5008544;28;20038;-83
2022/03/17 06:30:25;;;;;;;57.60;37.65;;;11.40;99.90;;;9.77;100.00;101313.56;5008649;28;20117;-83
2022/03/17 06:32:54;;;;;;;58.42;36.47;;;11.40;99.90;;;9.83;100.00;101322.09;5010094;28;20065;-83
2022/03/17 06:35:24;;;;;;;52.28;33.92;;;11.40;99.90;;;9.91;100.00;101330.28;5010354;28;20045;-83
2022/03/17 06:37:55;;;;;;;46.42;31.45;;;11.40;99.90;;;9.93;100.00;101348.16;5005418;28;20049;-83
2022/03/17 06:40:24;;;;;;;43.75;29.45;;;11.40;99.90;;;10.02;100.00;101356.38;5011837;28;20508;-80
2022/03/17 06:42:52;;;;;;;50.13;33.55;;;11.40;99.90;;;10.03;100.00;101364.34;5012231;28;20042;-84
2022/03/17 06:45:20;;;;;;;57.88;38.28;;;11.40;99.90;;;10.02;100.00;101367.25;5011155;28;20053;-82
2022/03/17 06:47:48;;;;;;;59.38;38.38;;;11.40;99.90;;;10.02;100.00;101378.97;5022805;28;21473;-84
2022/03/17 06:50:17;;;;;;;59.50;39.80;;;11.40;99.90;;;9.98;100.00;101377.59;5011451;28;20407;-86
2022/03/17 06:52:45;;;;;;;59.80;38.28;;;11.40;99.90;;;10.00;100.00;101391.88;5010589;28;20045;-85
2022/03/17 06:55:14;;;;;;;58.35;35.90;;;11.30;99.90;;;9.97;100.00;101397.63;5006271;28;20475;-85
2022/03/17 06:57:43;;;;;;;54.83;35.10;;;11.30;99.90;;;9.96;100.00;101398.66;5011670;28;20647;-86
2022/03/17 07:00:14;;;;;;;50.63;33.42;;;11.30;99.90;;;9.92;100.00;101408.16;5011833;28;20097;-85
2022/03/17 07:02:42;;;;;;;52.92;32.35;;;11.30;99.90;;;9.89;100.00;101411.16;5012076;28;20680;-86
2022/03/17 07:05:10;;;;;;;57.80;36.78;;;11.20;99.90;;;9.82;100.00;101431.84;5011923;28;20465;-85
2022/03/17 07:07:38;;;;;;;56.65;35.95;;;11.20;99.90;;;9.78;100.00;101436.72;5011535;28;20148;-85
2022/03/17 07:10:07;;;;;;;59.47;35.78;;;11.20;99.90;;;9.74;100.00;101438.91;4986398;28;20433;-86
2022/03/17 07:12:37;;;;;;;58.63;35.30;;;11.20;99.90;;;9.68;100.00;101435.97;4983105;28;20054;-86
2022/03/17 07:15:06;;;;;;;50.95;30.58;;;11.40;99.90;;;9.68;100.00;101446.84;5001039;28;20088;-85
2022/03/17 07:17:39;;;;;;;53.85;30.02;;;11.10;99.90;;;9.69;100.00;101457.56;4993937;28;20041;-85
2022/03/17 07:20:09;;;;;;;46.63;28.83;;;11.10;99.90;;;9.60;100.00;101472.09;4991694;28;20130;-85
2022/03/17 07:22:37;;;;;;;41.90;24.88;;;11.10;99.90;;;9.59;100.00;101473.06;4982148;28;20472;-86
2022/03/17 07:25:05;;;;;;;38.00;23.40;;;11.10;99.90;;;9.54;100.00;101480.88;5011144;28;20077;-86
2022/03/17 07:27:36;;;;;;;38.20;22.90;;;11.00;99.90;;;9.40;100.00;101476.78;5009467;28;20666;-85
2022/03/17 07:30:07;;;;;;;32.72;21.42;;;11.00;99.90;;;9.43;100.00;101490.06;5005618;28;20105;-84
2022/03/17 07:32:34;;;;;;;;;;;11.00;99.90;;;9.46;100.00;101497.94;5012124;28;20065;-85
2022/03/17 07:35:02;;;;;;;43.03;26.63;;;11.00;99.90;;;9.38;100.00;101514.97;5010876;28;19960;-85
2022/03/17 07:37:29;;;;;;;39.70;25.52;;;10.90;99.90;;;9.39;100.00;101513.97;4993796;28;20096;-85
2022/03/17 07:39:56;;;;;;;38.50;26.20;;;10.90;99.90;;;9.43;100.00;101527.28;5010479;28;20120;-85
2022/03/17 07:42:23;;;;;;;38.20;25.20;;;10.90;99.90;;;9.32;100.00;101529.16;5011333;28;20124;-85
2022/03/17 07:45:11;;;;;;;38.83;24.48;;;10.80;99.90;;;9.38;100.00;101539.41;5007582;28;20186;-85
2022/03/17 07:48:06;;;;;;;40.45;26.52;;;10.80;99.90;;;9.31;100.00;101538.34;4976188;28;20058;-86
2022/03/17 07:50:34;;;;;;;40.95;26.75;;;10.70;99.90;;;9.29;100.00;101553.06;5002720;28;20466;-86
2022/03/17 07:53:02;;;;;;;39.33;24.00;;;10.70;99.90;;;9.26;100.00;101558.81;4992948;28;20041;-87
2022/03/17 07:55:29;;;;;;;34.65;23.45;;;10.70;99.90;;;9.15;100.00;101563.41;4989516;28;20093;-86
2022/03/17 07:57:56;;;;;;;33.83;21.02;;;10.70;99.90;;;9.13;100.00;101572.72;5004827;28;20084;-86
2022/03/17 08:00:25;;;;;;;33.35;19.48;;;10.60;99.90;;;9.06;100.00;101571.59;5010106;28;20091;-87
2022/03/17 08:02:54;;;;;;;25.95;16.90;;;10.60;99.90;;;9.14;100.00;101585.31;5010166;28;20044;-85
2022/03/17 08:05:21;;;;;;;25.35;15.90;;;10.60;99.90;;;9.12;100.00;101590.88;4992373;28;20124;-86
2022/03/17 08:07:49;;;;;;;28.15;13.00;;;10.60;99.90;;;9.16;100.00;101588.72;4993003;28;20089;-85
2022/03/17 08:10:16;;;;;;;22.05;10.30;;;10.50;99.90;;;9.16;100.00;101591.44;5010338;28;20057;-86
2022/03/17 08:12:44;;;;;;;22.13;9.55;;;10.50;99.90;;;9.16;100.00;101602.31;5010564;28;20121;-85
2022/03/17 08:15:11;;;;;;;23.05;8.90;;;10.50;99.90;;;9.09;100.00;101601.19;4992663;28;20053;-86
2022/03/17 08:17:40;;;;;;;21.92;9.13;;;10.50;99.90;;;9.10;100.00;101613.75;4992988;28;20156;-85
2022/03/17 08:20:09;;;;;;;20.35;8.82;;;10.50;99.90;;;9.06;100.00;101623.19;4988333;28;20066;-85
2022/03/17 08:22:37;;;;;;;19.70;8.93;;;10.50;99.90;;;8.95;100.00;101630.53;4999599;28;20038;-86
2022/03/17 08:25:06;;;;;;;18.95;9.05;;;10.50;99.90;;;8.85;100.00;101636.97;4976893;28;20108;-86
2022/03/17 08:27:34;;;;;;;21.20;9.32;;;10.40;99.90;;;8.87;100.00;101630.41;4982838;28;20053;-85
2022/03/17 08:30:02;;;;;;;20.63;9.75;;;10.40;99.90;;;8.82;100.00;101640.84;4973133;28;20043;-85
2022/03/17 08:32:30;;;;;;;24.23;9.90;;;10.30;99.90;;;8.69;100.00;101629.44;4989135;28;20074;-86
2022/03/17 08:34:58;;;;;;;21.02;11.02;;;10.30;99.90;;;8.82;100.00;101648.13;4973203;28;20148;-87
2022/03/17 08:37:26;;;;;;;20.77;10.18;;;10.30;99.90;;;8.74;100.00;101648.88;4980590;28;20116;-86
2022/03/17 08:39:53;;;;;;;25.63;10.43;;;10.30;99.90;;;8.69;100.00;101652.00;4979810;28;20056;-83
2022/03/17 08:42:20;;;;;;;19.95;10.15;;;10.30;99.90;;;8.71;100.00;101666.28;4973040;28;20050;-87
2022/03/17 08:44:48;;;;;;;22.27;11.75;;;10.30;99.90;;;8.70;100.00;101659.16;5001176;28;20457;-88
2022/03/17 08:50:01;;;;;;;14.38;6.93;;;10.30;99.90;;;8.72;100.00;101675.25;4992207;28;20050;-86
2022/03/17 08:52:29;;;;;;;12.48;6.22;;;10.30;99.90;;;8.77;100.00;101675.69;5009620;28;20042;-87
2022/03/17 08:54:57;;;;;;;13.13;6.97;;;10.40;99.90;;;8.83;100.00;101685.13;4992021;28;20049;-87
2022/03/17 08:57:24;;;;;;;15.27;6.03;;;10.40;99.90;;;8.78;100.00;101691.00;4990314;28;20793;-86
2022/03/17 08:59:53;;;;;;;16.67;6.00;;;10.30;99.90;;;8.73;100.00;101698.69;4979363;28;20153;-86
2022/03/17 09:02:20;;;;;;;13.43;5.13;;;10.30;99.90;;;8.78;100.00;101699.13;4980655;28;20519;-84
2022/03/17 09:04:48;;;;;;;10.32;5.18;;;10.30;99.90;;;8.86;100.00;101707.41;4992143;28;20496;-84
2022/03/17 09:07:16;;;;;;;14.05;5.60;;;10.40;99.90;;;8.85;100.00;101708.38;4984900;28;20052;-84
2022/03/17 09:09:45;;;;;;;12.55;5.82;;;10.30;99.90;;;8.95;100.00;101714.69;4990221;28;20042;-84
2022/03/17 09:12:14;;;;;;;16.75;5.78;;;10.40;99.90;;;8.96;100.00;101718.25;4996184;28;20077;-85
2022/03/17 09:14:44;;;;;;;14.07;5.13;;;10.40;99.90;;;9.09;100.00;101723.38;4991855;28;20088;-84
2022/03/17 09:17:11;;;;;;;14.05;5.38;;;10.50;99.90;;;9.10;100.00;101725.97;4986855;28;20046;-85
2022/03/17 09:19:38;;;;;;;15.85;5.75;;;10.40;99.90;;;9.13;100.00;101724.81;4999205;28;20053;-84
2022/03/17 09:22:08;;;;;;;13.63;6.32;;;10.50;99.90;;;9.12;100.00;101729.41;5009343;28;20073;-82
2022/03/17 09:24:37;;;;;;;13.40;6.20;;;10.50;99.90;;;9.19;100.00;101733.25;5009720;28;20053;-84
2022/03/17 09:27:06;;;;;;;14.25;5.82;;;10.50;99.90;;;9.20;100.00;101742.25;4990291;28;20133;-84
2022/03/17 09:29:35;;;;;;;14.27;5.80;;;10.60;99.90;;;9.10;100.00;101747.69;4977011;28;20058;-84
2022/03/17 09:32:03;;;;;;;16.55;6.28;;;10.50;99.90;;;9.15;100.00;101744.53;4996151;28;20073;-84
2022/03/17 09:34:31;;;;;;;13.18;6.35;;;10.50;99.90;;;9.16;100.00;101751.69;5003421;28;20041;-83
2022/03/17 09:36:59;;;;;;;15.93;6.90;;;10.50;99.90;;;9.17;100.00;101750.66;5008749;28;20045;-84
2022/03/17 09:39:46;;;;;;;10.93;6.00;;;10.50;99.90;;;9.15;100.00;101758.97;5008351;28;20128;-84
2022/03/17 09:42:18;;;;;;;13.55;6.68;;;10.50;99.90;;;9.27;100.00;101765.13;4989209;28;20046;-84
2022/03/17 09:44:53;;;;;;;18.08;6.82;;;10.50;99.90;;;9.15;100.00;101769.81;4999273;28;20046;-85
2022/03/17 09:47:27;;;;;;;12.18;7.20;;;10.50;99.90;;;9.17;100.00;101770.53;4995032;28;20046;-84
2022/03/17 09:49:58;;;;;;;17.00;5.78;;;10.50;99.90;;;9.22;100.00;101767.41;4995555;28;20763;-84
2022/03/17 09:52:26;;;;;;;17.10;6.50;;;10.50;99.90;;;9.23;100.00;101782.69;4977792;28;20045;-84
2022/03/17 09:54:57;;;;;;;16.77;8.25;;;10.50;99.90;;;9.17;100.00;101781.41;4995169;28;20070;-84
2022/03/17 09:57:31;;;;;;;17.65;7.97;;;10.60;99.90;;;9.11;100.00;101789.28;4993963;28;20088;-84
2022/03/17 09:59:59;;;;;;;15.60;7.10;;;10.60;99.90;;;9.06;100.00;101786.97;4979687;28;20290;-85
2022/03/17 10:02:32;;;;;;;13.70;5.80;;;10.50;99.90;;;9.13;100.00;101793.56;4987164;28;20046;-84
2022/03/17 10:05:01;;;;;;;14.93;5.72;;;10.50;99.90;;;9.19;100.00;101803.88;4983673;28;20345;-84
2022/03/17 10:07:35;;;;;;;17.77;5.45;;;10.60;99.90;;;9.22;100.00;101800.00;4998958;28;20053;-85
2022/03/17 10:10:03;;;;;;;16.52;4.80;;;10.60;99.90;;;9.31;99.94;101815.44;5005903;28;20117;-84
2022/03/17 10:12:36;;;;;;;14.65;4.53;;;10.60;99.90;;;9.36;99.88;101813.13;5006059;28;20061;-84
2022/03/17 10:15:19;;;;;;;12.60;4.45;;;10.60;99.90;;;9.26;99.53;101815.00;4985447;28;20065;-85
2022/03/17 10:17:50;;;;;;;14.60;5.30;;;10.70;99.90;;;9.28;99.27;101820.28;4991888;28;20052;-85
2022/03/17 10:20:22;;;;;;;16.40;5.13;;;10.60;99.90;;;9.21;100.00;101830.88;4978917;28;20115;-84
2022/03/17 10:22:52;;;;;;;13.80;4.55;;;10.70;99.90;;;9.32;100.00;101833.44;4993927;28;20516;-84